createdAt,value
2023-05-13T00:00:45.222Z,9.84
2023-05-13T00:03:48.337Z,9.82
2023-05-13T00:06:51.588Z,9.89
2023-05-13T00:09:54.423Z,9.89
2023-05-13T00:12:57.107Z,9.92
2023-05-13T00:16:00.068Z,9.91
2023-05-13T00:19:02.979Z,9.86
2023-05-13T00:22:05.737Z,9.79
2023-05-13T00:25:08.907Z,9.77
2023-05-13T00:28:14.226Z,9.75
2023-05-13T00:31:17.146Z,9.74
2023-05-13T00:34:20.088Z,9.68
2023-05-13T00:37:23.005Z,9.68
2023-05-13T00:40:25.940Z,9.67
2023-05-13T00:43:29.526Z,9.62
2023-05-13T00:46:35.956Z,9.63
2023-05-13T00:49:39.033Z,9.62
2023-05-13T00:52:42.965Z,9.70
2023-05-13T00:55:46.542Z,9.74
2023-05-13T00:58:50.102Z,9.72
2023-05-13T01:02:35.031Z,9.74
2023-05-13T01:05:40.983Z,9.74
2023-05-13T01:08:56.798Z,9.77
2023-05-13T01:12:08.814Z,9.83
2023-05-13T01:15:16.398Z,9.78
2023-05-13T01:18:27.483Z,9.72
2023-05-13T01:21:36.412Z,9.69
2023-05-13T01:24:39.343Z,9.64
2023-05-13T01:27:42.254Z,9.65
2023-05-13T01:30:48.017Z,9.69
2023-05-13T01:33:51.522Z,9.73
2023-05-13T01:36:54.997Z,9.82
2023-05-13T01:39:58.735Z,9.79
2023-05-13T01:43:02.029Z,9.80
2023-05-13T01:46:12.289Z,9.76
2023-05-13T01:49:15.218Z,9.77
2023-05-13T01:52:18.041Z,9.74
2023-05-13T01:55:21.236Z,9.75
2023-05-13T01:58:25.092Z,9.74
2023-05-13T02:01:27.972Z,9.66
2023-05-13T02:04:30.836Z,9.75
2023-05-13T02:07:34.568Z,9.62
2023-05-13T02:10:37.377Z,9.49
2023-05-13T02:13:40.246Z,9.42
2023-05-13T02:16:43.500Z,9.47
2023-05-13T02:19:46.322Z,9.51
2023-05-13T02:22:49.096Z,9.57
2023-05-13T02:25:51.969Z,9.54
2023-05-13T02:28:54.818Z,9.59
2023-05-13T02:31:57.740Z,9.61
2023-05-13T02:35:00.782Z,9.64
2023-05-13T02:38:04.532Z,9.71
2023-05-13T02:41:09.429Z,9.71
2023-05-13T02:44:12.222Z,9.76
2023-05-13T02:47:15.041Z,9.73
2023-05-13T02:50:18.108Z,9.83
2023-05-13T02:53:20.992Z,9.88
2023-05-13T02:56:29.208Z,9.83
2023-05-13T02:59:32.032Z,9.85
2023-05-13T03:02:35.513Z,9.88
2023-05-13T03:05:38.400Z,9.82
2023-05-13T03:08:41.146Z,9.86
2023-05-13T03:11:43.926Z,9.88
2023-05-13T03:14:46.808Z,9.75
2023-05-13T03:17:49.543Z,9.83
2023-05-13T03:20:54.176Z,9.75
2023-05-13T03:23:58.442Z,9.79
2023-05-13T03:27:01.469Z,9.70
2023-05-13T03:30:06.172Z,9.62
2023-05-13T03:33:14.383Z,9.56
2023-05-13T03:36:17.229Z,9.58
2023-05-13T03:39:20.161Z,9.61
2023-05-13T03:42:23.791Z,9.45
2023-05-13T03:45:27.533Z,9.40
2023-05-13T03:48:33.781Z,9.33
2023-05-13T03:51:38.178Z,9.44
2023-05-13T03:54:41.967Z,9.45
2023-05-13T03:57:49.020Z,9.38
2023-05-13T04:00:54.152Z,9.40
2023-05-13T04:03:56.933Z,9.46
2023-05-13T04:06:59.773Z,9.45
2023-05-13T04:10:02.672Z,9.44
2023-05-13T04:13:06.407Z,9.36
2023-05-13T04:16:09.112Z,9.43
2023-05-13T04:19:11.917Z,9.36
2023-05-13T04:22:14.672Z,9.36
2023-05-13T04:25:17.700Z,9.43
2023-05-13T04:28:20.980Z,9.46
2023-05-13T04:31:25.472Z,9.49
2023-05-13T04:34:28.322Z,9.85
2023-05-13T04:37:31.371Z,10.15
2023-05-13T04:40:38.366Z,10.16
2023-05-13T04:43:45.181Z,10.01
2023-05-13T04:46:48.510Z,10.01
2023-05-13T04:49:51.360Z,10.09
2023-05-13T04:52:56.530Z,10.18
2023-05-13T04:56:01.146Z,10.28
2023-05-13T04:59:05.611Z,10.72
2023-05-13T05:02:08.424Z,10.71
2023-05-13T05:05:11.425Z,10.76
2023-05-13T05:08:14.300Z,10.89
2023-05-13T05:11:17.079Z,10.95
2023-05-13T05:14:20.400Z,11.35
2023-05-13T05:17:25.464Z,11.54
2023-05-13T05:20:28.476Z,11.86
2023-05-13T05:23:34.308Z,12.12
2023-05-13T05:26:37.238Z,12.30
2023-05-13T05:29:42.130Z,11.83
2023-05-13T05:32:45.149Z,11.77
2023-05-13T05:35:49.077Z,11.38
2023-05-13T05:38:53.834Z,11.15
2023-05-13T05:41:58.800Z,11.29
2023-05-13T05:45:01.700Z,11.06
2023-05-13T05:48:05.916Z,11.69
2023-05-13T05:51:08.989Z,11.78
2023-05-13T05:54:12.529Z,11.86
2023-05-13T05:57:15.691Z,11.94
2023-05-13T06:00:19.180Z,11.79
2023-05-13T06:03:22.120Z,11.66
2023-05-13T06:06:25.471Z,11.90
2023-05-13T06:09:28.230Z,11.85
2023-05-13T06:12:31.282Z,11.89
2023-05-13T06:15:34.125Z,13.00
2023-05-13T06:18:36.983Z,12.99
2023-05-13T06:21:39.785Z,12.61
2023-05-13T06:24:44.850Z,13.26
2023-05-13T06:27:49.346Z,12.54
2023-05-13T06:30:56.822Z,13.06
2023-05-13T06:33:59.751Z,13.56
2023-05-13T06:37:02.477Z,13.71
2023-05-13T06:40:06.218Z,13.53
2023-05-13T06:43:16.566Z,13.35
2023-05-13T06:46:23.738Z,14.00
2023-05-13T06:49:26.583Z,13.95
2023-05-13T06:52:31.529Z,14.29
2023-05-13T06:55:41.673Z,14.01
2023-05-13T06:58:44.712Z,15.20
2023-05-13T07:01:47.479Z,14.97
2023-05-13T07:04:50.196Z,14.56
2023-05-13T07:07:53.910Z,16.00
2023-05-13T07:10:56.691Z,16.55
2023-05-13T07:13:59.411Z,16.04
2023-05-13T07:17:02.390Z,16.18
2023-05-13T07:20:06.569Z,15.94
2023-05-13T07:23:09.345Z,15.66
2023-05-13T07:26:12.398Z,15.90
2023-05-13T07:29:15.161Z,15.86
2023-05-13T07:32:18.157Z,15.12
2023-05-13T07:35:21.247Z,14.93
2023-05-13T07:38:24.198Z,14.56
2023-05-13T07:41:27.830Z,14.43
2023-05-13T07:44:30.879Z,14.86
2023-05-13T07:47:34.065Z,15.12
2023-05-13T07:50:36.841Z,15.82
2023-05-13T07:53:39.886Z,16.09
2023-05-13T07:56:44.471Z,16.24
2023-05-13T07:59:47.157Z,15.46
2023-05-13T08:02:50.017Z,15.88
2023-05-13T08:05:52.837Z,15.45
2023-05-13T08:08:55.644Z,15.13
2023-05-13T08:11:58.413Z,15.52
2023-05-13T08:15:04.011Z,16.01
2023-05-13T08:18:06.837Z,15.20
2023-05-13T08:21:09.597Z,15.55
2023-05-13T08:24:12.586Z,16.39
2023-05-13T08:27:15.290Z,15.80
2023-05-13T08:30:18.350Z,16.18
2023-05-13T08:33:21.330Z,16.28
2023-05-13T08:36:26.051Z,17.05
2023-05-13T08:39:29.156Z,17.45
2023-05-13T08:42:33.720Z,17.72
2023-05-13T08:45:37.806Z,17.70
2023-05-13T08:48:42.325Z,18.95
2023-05-13T08:51:45.481Z,18.73
2023-05-13T08:54:48.987Z,18.27
2023-05-13T08:57:52.217Z,17.47
2023-05-13T09:00:55.410Z,17.21
2023-05-13T09:04:01.576Z,17.29
2023-05-13T09:07:08.012Z,17.75
2023-05-13T09:10:11.366Z,18.27
2023-05-13T09:13:14.595Z,17.02
2023-05-13T09:16:17.378Z,17.19
2023-05-13T09:19:20.317Z,17.94
2023-05-13T09:22:23.084Z,18.35
2023-05-13T09:25:27.226Z,18.20
2023-05-13T09:28:30.048Z,18.02
2023-05-13T09:31:33.887Z,16.96
2023-05-13T09:34:36.724Z,17.28
2023-05-13T09:37:39.604Z,16.62
2023-05-13T09:40:50.056Z,16.00
2023-05-13T09:43:52.922Z,16.06
2023-05-13T09:46:55.782Z,15.92
2023-05-13T09:50:02.855Z,16.84
2023-05-13T09:53:14.864Z,16.24
2023-05-13T09:56:22.352Z,16.49
2023-05-13T09:59:25.159Z,16.78
2023-05-13T10:02:29.188Z,16.73
2023-05-13T10:05:34.983Z,16.28
2023-05-13T10:08:39.176Z,16.24
2023-05-13T10:11:46.486Z,17.24
2023-05-13T10:14:52.214Z,17.78
2023-05-13T10:17:55.278Z,17.06
2023-05-13T10:20:58.718Z,16.73
2023-05-13T10:24:02.088Z,16.67
2023-05-13T10:27:06.738Z,16.84
2023-05-13T10:30:10.772Z,16.82
2023-05-13T10:33:14.201Z,16.04
2023-05-13T10:36:27.238Z,16.08
2023-05-13T10:39:38.660Z,16.04
2023-05-13T10:42:47.997Z,16.07
2023-05-13T10:45:56.735Z,16.68
2023-05-13T10:49:00.510Z,17.03
2023-05-13T10:52:14.128Z,17.05
2023-05-13T10:55:20.529Z,16.54
2023-05-13T10:58:30.261Z,17.11
2023-05-13T11:01:44.245Z,17.37
2023-05-13T11:05:00.457Z,17.87
2023-05-13T11:08:03.517Z,17.27
2023-05-13T11:11:21.499Z,16.60
2023-05-13T11:14:26.265Z,16.31
2023-05-13T11:17:31.319Z,16.96
2023-05-13T11:20:51.228Z,17.21
2023-05-13T11:24:06.585Z,16.91
2023-05-13T11:27:21.635Z,17.42
2023-05-13T11:30:27.145Z,17.33
2023-05-13T11:34:11.539Z,17.45
2023-05-13T11:37:14.373Z,17.42
2023-05-13T11:40:34.194Z,18.06
2023-05-13T11:43:39.534Z,17.54
2023-05-13T11:46:59.399Z,18.20
2023-05-13T11:50:02.149Z,17.08
2023-05-13T11:53:05.219Z,16.94
2023-05-13T11:56:11.360Z,17.08
2023-05-13T11:59:15.317Z,16.97
2023-05-13T12:02:22.019Z,17.41
2023-05-13T12:05:25.540Z,18.24
2023-05-13T12:08:28.637Z,18.26
2023-05-13T12:11:31.781Z,17.86
2023-05-13T12:14:34.869Z,19.30
2023-05-13T12:17:38.052Z,18.81
2023-05-13T12:21:17.963Z,21.02
2023-05-13T12:24:21.810Z,20.44
2023-05-13T12:27:24.635Z,22.20
2023-05-13T12:30:34.341Z,22.78
2023-05-13T12:33:47.042Z,22.17
2023-05-13T12:36:49.957Z,20.60
2023-05-13T12:40:10.284Z,21.23
2023-05-13T12:43:13.875Z,21.02
2023-05-13T12:46:16.694Z,20.61
2023-05-13T12:49:19.496Z,20.62
2023-05-13T12:52:22.570Z,20.02
2023-05-13T12:55:27.376Z,20.18
2023-05-13T12:58:30.144Z,20.21
2023-05-13T13:01:33.295Z,18.98
2023-05-13T13:04:36.095Z,18.92
2023-05-13T13:07:38.929Z,19.23
2023-05-13T13:10:41.794Z,20.14
2023-05-13T13:13:45.254Z,20.13
2023-05-13T13:16:48.130Z,21.60
2023-05-13T13:19:51.003Z,20.89
2023-05-13T13:22:54.886Z,22.20
2023-05-13T13:25:59.421Z,22.47
2023-05-13T13:29:02.245Z,21.03
2023-05-13T13:32:05.370Z,21.51
2023-05-13T13:35:08.472Z,19.59
2023-05-13T13:38:11.544Z,19.61
2023-05-13T13:41:14.362Z,19.46
2023-05-13T13:44:17.137Z,20.59
2023-05-13T13:47:19.970Z,20.38
2023-05-13T13:54:18.979Z,20.89
2023-05-13T13:57:24.415Z,20.80
2023-05-13T14:00:27.164Z,20.19
2023-05-13T14:03:30.190Z,20.45
2023-05-13T14:06:32.986Z,19.77
2023-05-13T14:09:35.709Z,20.73
2023-05-13T14:12:38.599Z,20.01
2023-05-13T14:15:41.334Z,20.48
2023-05-13T14:18:44.539Z,20.36
2023-05-13T14:21:47.358Z,21.04
2023-05-13T14:24:52.204Z,21.59
2023-05-13T14:27:54.995Z,21.81
2023-05-13T14:30:57.790Z,21.49
2023-05-13T14:34:00.582Z,20.50
2023-05-13T14:37:03.485Z,20.65
2023-05-13T14:40:07.316Z,19.98
2023-05-13T14:43:10.228Z,20.32
2023-05-13T14:46:13.413Z,20.20
2023-05-13T14:49:16.306Z,20.40
2023-05-13T14:52:19.069Z,20.94
2023-05-13T14:55:21.824Z,20.83
2023-05-13T14:58:24.952Z,20.40
2023-05-13T15:01:27.850Z,20.85
2023-05-13T15:04:30.968Z,21.15
2023-05-13T15:07:33.812Z,21.43
2023-05-13T15:10:36.534Z,21.01
2023-05-13T15:13:39.632Z,19.88
2023-05-13T15:16:42.394Z,19.95
2023-05-13T15:19:45.244Z,20.11
2023-05-13T15:22:48.005Z,20.07
2023-05-13T15:25:51.620Z,20.08
2023-05-13T15:28:54.424Z,20.25
2023-05-13T15:31:57.166Z,20.11
2023-05-13T15:34:59.874Z,20.20
2023-05-13T15:38:03.666Z,20.05
2023-05-13T15:41:06.480Z,20.28
2023-05-13T15:44:09.277Z,20.41
2023-05-13T15:47:12.273Z,20.44
2023-05-13T15:50:15.150Z,20.08
2023-05-13T15:53:17.932Z,19.99
2023-05-13T15:56:25.852Z,19.87
2023-05-13T15:59:28.586Z,19.52
2023-05-13T16:02:37.657Z,19.44
2023-05-13T16:05:40.462Z,19.32
2023-05-13T16:08:43.201Z,19.26
2023-05-13T16:11:46.007Z,18.89
2023-05-13T16:14:48.777Z,19.18
2023-05-13T16:17:51.555Z,19.06
2023-05-13T16:21:18.128Z,19.09
2023-05-13T16:24:37.030Z,18.76
2023-05-13T16:27:40.686Z,18.47
2023-05-13T16:31:13.290Z,18.60
2023-05-13T16:34:16.175Z,18.65
2023-05-13T16:37:19.080Z,18.48
2023-05-13T16:40:22.240Z,18.20
2023-05-13T16:43:25.064Z,18.26
2023-05-13T16:46:29.010Z,18.29
2023-05-13T16:49:31.794Z,18.33
2023-05-13T16:52:34.518Z,18.26
2023-05-13T16:55:37.277Z,18.16
2023-05-13T16:58:40.101Z,17.97
2023-05-13T17:01:42.891Z,17.74
2023-05-13T17:04:45.853Z,17.53
2023-05-13T17:07:48.592Z,17.44
2023-05-13T17:11:01.192Z,17.31
2023-05-13T17:14:06.264Z,17.25
2023-05-13T17:17:09.384Z,17.17
2023-05-13T17:20:12.468Z,16.98
2023-05-13T17:23:17.364Z,16.74
2023-05-13T17:26:22.094Z,16.60
2023-05-13T17:29:26.009Z,16.59
2023-05-13T17:32:31.548Z,16.37
2023-05-13T17:35:54.504Z,15.93
2023-05-13T17:38:57.277Z,15.55
2023-05-13T17:42:00.041Z,15.32
2023-05-13T17:45:03.836Z,15.31
2023-05-13T17:48:06.959Z,15.18
2023-05-13T17:51:11.538Z,15.15
2023-05-13T17:54:14.342Z,15.08
2023-05-13T17:57:17.312Z,14.96
2023-05-13T18:00:20.406Z,14.86
2023-05-13T18:03:23.626Z,14.77
2023-05-13T18:06:26.595Z,14.52
2023-05-13T18:09:29.538Z,14.29
2023-05-13T18:12:32.372Z,14.14
2023-05-13T18:15:35.256Z,14.06
2023-05-13T18:18:38.065Z,13.98
2023-05-13T18:21:40.949Z,13.94
2023-05-13T18:24:46.547Z,13.90
2023-05-13T18:27:50.618Z,13.94
2023-05-13T18:30:53.259Z,13.94
2023-05-13T18:33:55.985Z,13.92
2023-05-13T18:36:58.901Z,13.89
2023-05-13T18:40:02.260Z,13.85
2023-05-13T18:43:05.073Z,13.86
2023-05-13T18:46:07.905Z,13.72
2023-05-13T18:49:11.536Z,13.50
2023-05-13T18:52:14.265Z,13.50
2023-05-13T18:55:17.068Z,13.41
2023-05-13T18:58:19.803Z,13.40
2023-05-13T19:01:22.781Z,13.42
2023-05-13T19:04:26.126Z,13.42
2023-05-13T19:07:29.121Z,13.41
2023-05-13T19:10:39.153Z,13.39
2023-05-13T19:13:47.376Z,13.33
2023-05-13T19:16:51.023Z,13.27
2023-05-13T19:19:53.796Z,13.20
2023-05-13T19:22:56.681Z,13.14
2023-05-13T19:25:59.593Z,13.15
2023-05-13T19:29:02.881Z,13.12
2023-05-13T19:32:06.398Z,13.15
2023-05-13T19:35:09.733Z,13.08
2023-05-13T19:38:12.614Z,13.09
2023-05-13T19:41:15.417Z,13.02
2023-05-13T19:44:18.288Z,13.02
2023-05-13T19:47:21.085Z,12.98
2023-05-13T19:50:24.153Z,12.98
2023-05-13T19:53:27.341Z,12.91
2023-05-13T19:56:30.701Z,12.94
2023-05-13T19:59:33.430Z,12.89
2023-05-13T20:02:36.298Z,12.96
2023-05-13T20:05:41.311Z,12.94
2023-05-13T20:08:44.006Z,12.97
2023-05-13T20:11:46.821Z,12.96
2023-05-13T20:14:58.903Z,12.99
2023-05-13T20:18:01.638Z,13.00
2023-05-13T20:21:04.643Z,13.03
2023-05-13T20:24:07.516Z,13.02
2023-05-13T20:27:10.428Z,13.01
2023-05-13T20:30:13.813Z,13.01
2023-05-13T20:33:16.569Z,13.01
2023-05-13T20:36:19.292Z,13.01
2023-05-13T20:39:22.238Z,13.00
2023-05-13T20:42:25.569Z,13.02
2023-05-13T20:45:28.735Z,12.96
2023-05-13T20:48:33.126Z,12.91
2023-05-13T20:51:35.840Z,12.94
2023-05-13T20:54:38.992Z,12.92
2023-05-13T20:57:42.070Z,12.92
2023-05-13T21:00:44.902Z,12.86
2023-05-13T21:03:50.080Z,12.76
2023-05-13T21:06:53.385Z,12.71
2023-05-13T21:09:56.138Z,12.68
2023-05-13T21:12:59.114Z,12.71
2023-05-13T21:16:05.561Z,12.72
2023-05-13T21:19:08.595Z,12.71
2023-05-13T21:22:11.355Z,12.66
2023-05-13T21:25:14.090Z,12.63
2023-05-13T21:28:18.717Z,12.67
2023-05-13T21:31:21.862Z,12.68
2023-05-13T21:34:24.652Z,12.68
2023-05-13T21:37:27.562Z,12.60
2023-05-13T21:40:30.301Z,12.53
2023-05-13T21:43:33.043Z,12.50
2023-05-13T21:46:36.342Z,12.50
2023-05-13T21:49:39.322Z,12.41
2023-05-13T21:52:42.206Z,12.39
2023-05-13T21:55:44.972Z,12.38
2023-05-13T21:58:50.042Z,12.47
2023-05-13T22:01:52.808Z,12.37
2023-05-13T22:04:55.552Z,12.43
2023-05-13T22:08:00.195Z,12.45
2023-05-13T22:11:03.162Z,12.43
2023-05-13T22:14:05.983Z,12.39
2023-05-13T22:17:10.313Z,12.41
2023-05-13T22:20:13.864Z,12.33
2023-05-13T22:23:16.552Z,12.35
2023-05-13T22:26:19.367Z,12.28
2023-05-13T22:29:22.214Z,12.23
2023-05-13T22:32:25.293Z,12.28
2023-05-13T22:35:32.248Z,12.21
2023-05-13T22:38:34.975Z,12.22
2023-05-13T22:41:37.791Z,12.22
2023-05-13T22:44:40.499Z,12.27
2023-05-13T22:47:48.288Z,12.22
2023-05-13T22:51:00.047Z,12.24
2023-05-13T22:54:02.928Z,12.18
2023-05-13T22:57:06.053Z,12.26
2023-05-13T23:00:09.387Z,12.16
2023-05-13T23:03:12.312Z,12.22
2023-05-13T23:06:15.153Z,12.18
2023-05-13T23:09:18.014Z,12.14
2023-05-13T23:12:20.784Z,12.12
2023-05-13T23:15:23.564Z,12.11
2023-05-13T23:18:26.371Z,12.09
2023-05-13T23:21:29.344Z,12.09
2023-05-13T23:24:32.262Z,12.04
2023-05-13T23:27:35.600Z,12.07
2023-05-13T23:30:38.375Z,12.07
2023-05-13T23:33:41.200Z,12.05
2023-05-13T23:36:43.992Z,11.98
2023-05-13T23:39:46.705Z,12.05
2023-05-13T23:42:49.455Z,11.99
2023-05-13T23:45:52.158Z,12.01
2023-05-13T23:48:55.173Z,11.97
2023-05-13T23:51:57.880Z,11.93
2023-05-13T23:55:03.689Z,11.92
2023-05-13T23:58:06.360Z,11.96
